Main page
METAR-TAF:

METAR-TAF

Airports :

Sabadell, Spain

Sabadell Airport

latitude: 41-31N, longitude: 002-06E, elevation: 250 m

Current weather observation

The report was made 13 minutes ago, at 07:00 UTC
Wind 6 kt from the West
Temperature 5°C
Humidity 93%
Pressure 1022 hPa
Visibility: 7000 m
Broken clouds at a height of 2500 ft

METAR: LELL 180700Z 28006KT 7000 BKN025 05/04 Q1022

Time: 08:13 (07:13 UTC)

Forecast

The report was made 5 hours and 13 minutes ago, at 02:00 UTC
Forecast valid from 18 at 03 UTC to 19 at 03 UTC
Wind 4 kt from variable directions
Visibility 10 km or more
Scattered clouds at a height of 2000 ft
Temporary
from 18 at 03 UTC to 18 at 12 UTC
Broken clouds at a height of 1200 ft
Probability 30% :
Temporary
from 18 at 03 UTC to 18 at 09 UTC
Visibility: 3000 m
mist

TAF: LELL 180200Z 1803/1903 VRB04KT 9999 SCT020 TX15/1813Z TN05/1806Z TEMPO 1803/1812 BKN012 PROB30 TEMPO 1803/1809 3000 BR

Weather observations and forecasts of more than 4000 airports (METAR and TAF reports).

The available stations are represented by yellow and red dots on the map.

Hover mouse over dot to see the name of the station.

Then click to see weather observations and forecasts.

To change the map : click on the green buttons with a black cross to zoom in, on the green button with a dash to zoom out, or on the green arrows for adjacent maps.


METAR-TAF: